Time;durP1;ratioP1;P1;durP2;ratioP2;P2;SDS_P1;SDS_P2;PMS_P1;PMS_P2;Temp;Humidity;BMP_temperature;BMP_pressure;BME280_temperature;BME280_humidity;BME280_pressure;Samples;Min_cycle;Max_cycle;Signal;HPM_P1;HPM_P2
2022/02/08 00:02:01;;;;;;;;;39.00;32.25;;;;;9.17;58.40;103142.81;5041637;28;45730;-76
2022/02/08 00:04:29;;;;;;;;;36.25;31.00;;;;;9.20;58.78;103134.09;5039087;28;45483;-76
2022/02/08 00:06:56;;;;;;;;;38.25;33.00;;;;;9.21;58.46;103131.47;5041943;28;45281;-76
2022/02/08 00:09:24;;;;;;;;;33.00;29.25;;;;;9.23;58.96;103128.91;5041910;28;45454;-76
2022/02/08 00:11:49;;;;;;;;;43.25;32.00;;;;;9.23;58.74;103131.53;5042628;28;46250;-80
2022/02/08 00:14:15;;;;;;;;;30.00;27.25;;;;;9.26;58.69;103130.69;5040546;28;45417;-80
2022/02/08 00:16:40;;;;;;;;;35.75;30.75;;;;;9.27;58.82;103133.31;5041850;28;45221;-80
2022/02/08 00:19:06;;;;;;;;;39.25;32.25;;;;;9.26;58.55;103128.06;5041367;28;45305;-78
2022/02/08 00:21:32;;;;;;;;;36.00;30.00;;;;;9.30;58.72;103137.72;5035129;28;45265;-77
2022/02/08 00:23:57;;;;;;;;;29.50;25.75;;;;;9.30;58.85;103135.09;5036987;28;45494;-77
2022/02/08 00:26:23;;;;;;;;;29.75;26.50;;;;;9.29;58.76;103131.56;5041770;28;45206;-77
2022/02/08 00:28:48;;;;;;;;;27.25;22.25;;;;;9.33;58.61;103124.63;5022816;28;46996;-77
2022/02/08 00:31:14;;;;;;;;;28.25;23.75;;;;;9.34;59.04;103121.13;5041122;28;45400;-77
2022/02/08 00:33:39;;;;;;;;;22.50;20.75;;;;;9.36;59.00;103119.41;5038653;28;45505;-76
2022/02/08 00:36:05;;;;;;;;;21.75;21.75;;;;;9.37;58.89;103121.16;5039730;28;45288;-76
2022/02/08 00:38:32;;;;;;;;;24.50;21.75;;;;;9.35;58.90;103112.41;5023372;28;46096;-76
2022/02/08 00:41:00;;;;;;;;;23.00;20.75;;;;;9.36;58.94;103121.16;5040926;28;45522;-77
2022/02/08 00:43:31;;;;;;;;;24.00;22.50;;;;;9.37;59.29;103110.66;5040886;28;45691;-76
2022/02/08 00:46:05;;;;;;;;;24.50;22.00;;;;;9.37;59.16;103115.91;5038770;28;45449;-76
2022/02/08 00:48:39;;;;;;;;;24.75;20.75;;;;;9.43;59.30;103120.38;5041090;28;45393;-76
2022/02/08 00:51:05;;;;;;;;;23.75;20.00;;;;;9.43;58.79;103129.09;5040743;28;46405;-76
2022/02/08 00:53:30;;;;;;;;;28.75;19.50;;;;;9.41;58.75;103125.56;5040788;28;46756;-76
2022/02/08 00:55:56;;;;;;;;;24.75;20.25;;;;;9.41;58.94;103122.06;5038692;28;45427;-76
2022/02/08 00:58:22;;;;;;;;;17.50;16.00;;;;;9.40;58.64;103115.97;5041333;28;45276;-76
2022/02/08 01:00:47;;;;;;;;;19.50;15.50;;;;;9.38;58.78;103117.69;5040654;28;46692;-77
2022/02/08 01:03:13;;;;;;;;;22.50;18.00;;;;;9.42;58.74;103115.97;5036876;28;46569;-77
2022/02/08 01:05:45;;;;;;;;;17.00;14.00;;;;;9.41;59.09;103109.81;5039132;28;45447;-77
2022/02/08 01:08:10;;;;;;;;;23.25;17.75;;;;;9.42;58.78;103114.22;5041233;28;45433;-76
2022/02/08 01:10:38;;;;;;;;;16.00;13.50;;;;;9.42;59.05;103119.47;5043794;28;45481;-76
2022/02/08 01:13:05;;;;;;;;;17.75;14.00;;;;;9.41;58.91;103117.69;5039592;28;45257;-76
2022/02/08 01:15:31;;;;;;;;;14.75;13.00;;;;;9.42;58.65;103124.72;5028546;28;45407;-77
2022/02/08 01:17:58;;;;;;;;;10.50;10.50;;;;;9.42;58.73;103110.72;5040688;28;45281;-76
2022/02/08 01:20:36;;;;;;;;;15.00;13.50;;;;;9.43;58.75;103125.63;5036682;28;46223;-76
2022/02/08 01:23:06;;;;;;;;;12.25;11.75;;;;;9.45;58.95;103134.38;5040781;28;45512;-76
2022/02/08 01:25:41;;;;;;;;;16.25;11.00;;;;;9.48;59.24;103134.41;5028762;28;45451;-77
2022/02/08 01:28:21;;;;;;;;;17.25;13.75;;;;;9.50;58.94;103137.06;5040738;28;45256;-76
2022/02/08 01:38:34;;;;;;;;;13.50;11.00;;;;;9.59;58.73;103137.13;5040027;28;45388;-78
2022/02/08 01:41:32;;;;;;;;;18.00;14.50;;;;;9.65;58.93;103134.59;5031328;28;45217;-78
2022/02/08 01:46:36;;;;;;;;;17.00;12.75;;;;;9.67;59.11;103142.47;5033283;28;45476;-78
2022/02/08 01:49:13;;;;;;;;;19.75;17.75;;;;;9.70;58.99;103141.63;5038580;28;45516;-78
2022/02/08 01:51:38;;;;;;;;;17.75;16.50;;;;;9.70;58.88;103139.88;5040227;28;46462;-78
2022/02/08 01:54:04;;;;;;;;;16.25;14.50;;;;;9.74;58.85;103146.03;5038457;28;45262;-78
2022/02/08 01:56:30;;;;;;;;;17.50;15.50;;;;;9.73;58.87;103139.03;5040468;28;45191;-79
2022/02/08 01:58:56;;;;;;;;;18.50;17.00;;;;;9.77;58.94;103144.31;5039240;28;45619;-77
2022/02/08 02:01:22;;;;;;;;;18.75;13.50;;;;;9.76;58.68;103139.03;5039684;28;46486;-76
2022/02/08 02:03:47;;;;;;;;;19.00;15.50;;;;;9.76;58.60;103139.91;5039040;28;45158;-77
2022/02/08 02:06:13;;;;;;;;;15.25;15.25;;;;;9.79;58.46;103139.97;5037933;28;45332;-76
2022/02/08 02:08:38;;;;;;;;;13.75;12.00;;;;;9.79;59.03;103141.69;5024623;28;45238;-76
2022/02/08 02:11:04;;;;;;;;;14.75;12.75;;;;;9.79;59.19;103139.97;5047279;28;46310;-76
2022/02/08 02:13:44;;;;;;;;;22.50;16.25;;;;;9.82;58.92;103147.00;5043757;28;45402;-76
2022/02/08 02:16:12;;;;;;;;;15.75;12.75;;;;;9.83;58.77;103146.09;5040240;28;45244;-76
2022/02/08 02:18:38;;;;;;;;;22.75;15.00;;;;;9.82;58.64;103138.22;5039385;28;45225;-76
2022/02/08 02:21:04;;;;;;;;;19.75;15.25;;;;;9.82;58.74;103138.22;5039541;28;45201;-77
2022/02/08 02:23:30;;;;;;;;;16.75;14.00;;;;;9.82;59.27;103136.47;5039234;28;45458;-77
2022/02/08 02:25:55;;;;;;;;;18.75;14.50;;;;;9.82;58.89;103131.22;5038415;28;45233;-76
2022/02/08 02:28:21;;;;;;;;;18.25;13.50;;;;;9.82;58.99;103131.22;5021892;28;46388;-77
2022/02/08 02:30:46;;;;;;;;;16.50;14.75;;;;;9.85;58.79;103138.25;5039360;28;45482;-77
2022/02/08 02:33:12;;;;;;;;;21.75;14.25;;;;;9.83;59.00;103132.97;5039484;28;45314;-76
2022/02/08 02:35:38;;;;;;;;;18.25;15.50;;;;;9.82;58.97;103133.84;5020155;28;45327;-76
2022/02/08 02:38:05;;;;;;;;;15.75;14.75;;;;;9.81;59.26;103129.47;5039359;28;45403;-76
2022/02/08 02:40:31;;;;;;;;;18.00;15.50;;;;;9.83;59.02;103129.50;5039210;28;46232;-76
2022/02/08 02:42:57;;;;;;;;;15.25;12.00;;;;;9.83;59.12;103126.88;5039566;28;45173;-76
2022/02/08 02:45:23;;;;;;;;;23.75;14.75;;;;;9.84;59.29;103128.59;5037365;28;45468;-76
2022/02/08 02:47:51;;;;;;;;;15.25;13.00;;;;;9.85;58.89;103120.72;5039282;28;45573;-76
2022/02/08 02:50:17;;;;;;;;;12.25;12.25;;;;;9.84;59.00;103125.97;5039018;28;46217;-76
2022/02/08 02:52:42;;;;;;;;;19.50;13.00;;;;;9.84;58.73;103129.50;5039398;28;45382;-76
2022/02/08 02:55:08;;;;;;;;;13.25;10.25;;;;;9.84;58.96;103129.50;5032160;28;45433;-76
2022/02/08 02:57:34;;;;;;;;;19.00;13.50;;;;;9.86;59.00;103135.63;5038977;28;45412;-76
2022/02/08 03:00:10;;;;;;;;;15.00;11.75;;;;;9.85;58.82;103127.75;5040703;28;45577;-78
2022/02/08 03:02:57;;;;;;;;;17.25;12.75;;;;;9.85;59.03;103125.13;5041754;28;45268;-78
2022/02/08 03:18:45;;;;;;;;;10.25;9.75;;;;;9.85;59.36;103120.72;5042289;28;45264;-79
2022/02/08 03:21:11;;;;;;;;;13.25;11.00;;;;;9.87;59.72;103126.00;5041908;28;45415;-77
2022/02/08 03:23:38;;;;;;;;;16.00;11.00;;;;;9.88;59.43;103133.00;5040025;28;45433;-77
2022/02/08 03:26:04;;;;;;;;;14.00;10.25;;;;;9.87;59.65;103120.75;5039518;28;45362;-77
2022/02/08 03:28:30;;;;;;;;;13.75;10.00;;;;;9.89;59.53;103119.03;5042154;28;45387;-77
2022/02/08 03:30:55;;;;;;;;;13.50;10.00;;;;;9.88;59.11;103114.63;5042346;28;46210;-79
2022/02/08 03:33:23;;;;;;;;;11.25;9.50;;;;;9.89;59.39;103114.66;5040884;28;45435;-79
2022/02/08 03:35:50;;;;;;;;;15.00;13.00;;;;;9.91;59.40;103117.28;5042037;28;45317;-86
2022/02/08 03:38:18;;;;;;;;;11.25;7.75;;;;;9.92;59.44;103116.44;5042260;28;45504;-81
2022/02/08 03:40:52;;;;;;;;;13.50;11.50;;;;;9.93;59.81;103120.78;5042313;28;46218;-80
2022/02/08 03:45:50;;;;;;;;;14.50;11.00;;;;;9.94;59.62;103127.81;5042169;28;45378;-79
2022/02/08 03:48:17;;;;;;;;;13.00;10.00;;;;;9.95;59.46;103123.44;5041647;28;45233;-79
2022/02/08 03:50:49;;;;;;;;;13.75;9.00;;;;;9.98;59.41;103134.84;5041923;28;45271;-77
2022/02/08 03:53:15;;;;;;;;;11.75;10.00;;;;;9.97;59.06;103129.59;5036390;28;45299;-77
2022/02/08 03:55:40;;;;;;;;;15.25;10.25;;;;;9.97;59.37;103135.75;5041685;28;45332;-76
2022/02/08 03:58:05;;;;;;;;;16.25;11.25;;;;;9.99;59.35;103133.13;5041693;28;45495;-76
2022/02/08 04:00:38;;;;;;;;;12.00;10.25;;;;;10.00;58.96;103140.13;5024100;28;47354;-76
2022/02/08 04:03:03;;;;;;;;;16.75;10.75;;;;;10.00;59.41;103137.50;5034431;28;45727;-76
2022/02/08 04:05:35;;;;;;;;;14.00;10.00;;;;;9.99;59.21;103131.38;5036026;28;45309;-76
2022/02/08 04:08:05;;;;;;;;;14.00;12.00;;;;;10.01;59.28;103134.00;5041670;28;45475;-76
2022/02/08 04:10:31;;;;;;;;;14.00;10.00;;;;;10.02;59.36;103138.41;5043682;28;45429;-77
2022/02/08 04:15:45;;;;;;;;;15.50;10.50;;;;;10.00;59.36;103138.38;5042079;28;45275;-76
2022/02/08 04:18:40;;;;;;;;;9.25;9.00;;;;;10.02;59.54;103141.03;5022666;28;47237;-76
2022/02/08 04:45:28;;;;;;;;;13.25;10.50;;;;;10.10;59.48;103141.94;5036701;28;45166;-79
2022/02/08 04:51:00;;;;;;;;;13.00;11.50;;;;;10.13;59.17;103144.63;5013388;28;45478;-78
2022/02/08 04:53:34;;;;;;;;;11.25;9.50;;;;;10.10;59.59;103144.56;5023154;28;47169;-78
2022/02/08 04:56:10;;;;;;;;;13.25;11.00;;;;;10.11;59.17;103137.59;5041171;28;45361;-79
2022/02/08 04:58:44;;;;;;;;;12.00;9.50;;;;;10.12;59.44;103134.94;5041185;28;45306;-79
2022/02/08 05:01:18;;;;;;;;;12.25;8.25;;;;;10.12;59.32;103123.59;5028504;28;46084;-79
2022/02/08 05:37:15;;;;;;;;;9.75;8.50;;;;;10.07;59.69;103139.31;5040255;28;45486;-80
2022/02/08 05:42:24;;;;;;;;;10.00;9.25;;;;;10.08;60.14;103135.81;5038278;28;45450;-80
2022/02/08 05:44:39;;;;;;;;;12.25;10.00;;;;;10.10;60.35;103134.06;5036468;28;45268;-80
2022/02/08 05:47:06;;;;;;;;;11.75;11.25;;;;;10.10;60.30;103134.06;5040327;28;45516;-79
2022/02/08 05:49:50;;;;;;;;;12.75;10.75;;;;;10.10;60.06;103126.19;5039822;28;45340;-77
2022/02/08 05:52:44;;;;;;;;;14.25;9.75;;;;;10.11;60.09;103132.31;5039569;28;45266;-78
2022/02/08 05:55:07;;;;;;;;;9.25;8.50;;;;;10.13;60.24;103127.97;5040163;28;45518;-80
2022/02/08 05:57:33;;;;;;;;;19.50;12.50;;;;;10.13;60.30;103130.59;5037929;28;45327;-81
2022/02/08 05:59:58;;;;;;;;;16.75;12.00;;;;;10.10;60.30;103128.81;5021653;28;45444;-81
2022/02/08 06:02:24;;;;;;;;;11.00;10.00;;;;;10.10;60.50;103126.19;5035761;28;45472;-84
2022/02/08 06:04:50;;;;;;;;;12.25;10.75;;;;;10.13;60.40;103134.09;5029338;28;45426;-82
2022/02/08 06:07:19;;;;;;;;;13.25;10.00;;;;;10.15;60.71;103131.47;5032277;28;45415;-82
2022/02/08 06:09:48;;;;;;;;;13.00;9.50;;;;;10.14;60.62;103124.47;5030398;28;45785;-82
2022/02/08 06:12:13;;;;;;;;;10.50;9.00;;;;;10.16;60.82;103129.72;5016158;28;45462;-82
2022/02/08 06:14:41;;;;;;;;;9.25;8.00;;;;;10.17;60.65;103135.00;5024233;28;45484;-82
2022/02/08 06:17:07;;;;;;;;;12.25;11.50;;;;;10.17;61.20;103126.25;5034923;28;45486;-82
2022/02/08 06:19:32;;;;;;;;;14.25;8.75;;;;;10.18;60.70;103130.63;5030115;28;45712;-82
2022/02/08 06:21:57;;;;;;;;;10.50;9.00;;;;;10.19;60.94;103130.66;5033579;28;45476;-82
2022/02/08 06:24:23;;;;;;;;;10.25;10.25;;;;;10.20;61.09;103123.63;5029304;28;45508;-82
2022/02/08 06:26:48;;;;;;;;;6.00;6.00;;;;;10.20;61.24;103128.88;5027650;28;46058;-81
2022/02/08 06:29:20;;;;;;;;;15.50;12.25;;;;;10.19;61.21;103141.16;5037417;28;45383;-81
2022/02/08 06:31:46;;;;;;;;;13.25;10.50;;;;;10.20;61.44;103129.75;5033826;28;45453;-82
2022/02/08 06:34:17;;;;;;;;;12.00;10.75;;;;;10.23;61.42;103136.78;5028664;28;45465;-82
2022/02/08 06:36:43;;;;;;;;;11.75;10.00;;;;;10.22;61.29;103138.53;5024333;28;45707;-82
2022/02/08 06:39:08;;;;;;;;;10.50;10.00;;;;;10.24;61.51;103138.56;5034341;28;45926;-82
2022/02/08 06:41:34;;;;;;;;;12.50;12.00;;;;;10.25;61.36;103137.69;5021617;28;45954;-83
2022/02/08 06:44:01;;;;;;;;;11.25;9.00;;;;;10.27;61.57;103143.84;5033532;28;45533;-83
2022/02/08 06:46:28;;;;;;;;;11.75;7.75;;;;;10.26;61.76;103142.06;5039170;28;45990;-83
2022/02/08 06:48:54;;;;;;;;;12.00;10.25;;;;;10.28;61.54;103153.47;5038478;28;45276;-83
2022/02/08 06:51:19;;;;;;;;;13.25;12.75;;;;;10.28;61.67;103148.22;5039417;28;45273;-83
2022/02/08 06:53:45;;;;;;;;;12.50;10.25;;;;;10.30;61.61;103151.72;5039095;28;45294;-81
2022/02/08 06:56:10;;;;;;;;;13.00;12.00;;;;;10.32;61.90;103149.13;5040648;28;45446;-81
2022/02/08 06:58:48;;;;;;;;;14.25;10.00;;;;;10.32;61.66;103150.00;5039187;28;45241;-82
2022/02/08 07:01:14;;;;;;;;;13.25;11.50;;;;;10.31;61.92;103148.25;5021593;28;45473;-86
2022/02/08 07:03:40;;;;;;;;;14.50;12.75;;;;;10.33;62.10;103151.75;5038207;28;45347;-82
2022/02/08 07:06:06;;;;;;;;;12.25;10.00;;;;;10.37;61.93;103154.44;5037967;28;45634;-82
2022/02/08 07:08:31;;;;;;;;;14.00;10.50;;;;;10.38;61.97;103161.41;5039182;28;45385;-81
2022/02/08 07:10:57;;;;;;;;;9.25;9.25;;;;;10.38;61.92;103158.78;5041242;28;45579;-81
2022/02/08 07:13:22;;;;;;;;;13.00;11.75;;;;;10.41;62.02;103158.81;5040062;28;45437;-81
2022/02/08 07:15:48;;;;;;;;;16.25;13.25;;;;;10.39;61.96;103155.31;5026262;28;45455;-81
2022/02/08 07:18:13;;;;;;;;;14.25;11.50;;;;;10.39;61.97;103161.47;5038842;28;45312;-80
2022/02/08 07:20:40;;;;;;;;;12.75;12.00;;;;;10.39;61.79;103171.97;5038922;28;45349;-81
2022/02/08 07:23:06;;;;;;;;;12.00;10.50;;;;;10.39;62.01;103166.72;5039220;28;45244;-81
2022/02/08 07:25:31;;;;;;;;;9.25;9.25;;;;;10.40;62.12;103168.44;5038116;28;45464;-81
2022/02/08 07:27:57;;;;;;;;;13.50;10.75;;;;;10.40;62.21;103173.72;5019028;28;45528;-81
2022/02/08 07:30:23;;;;;;;;;11.25;11.00;;;;;10.41;62.20;103177.22;5038851;28;45224;-81
2022/02/08 07:32:52;;;;;;;;;10.75;9.75;;;;;10.43;62.05;103179.00;5038612;28;45441;-81
2022/02/08 07:37:56;;;;;;;;;12.50;12.25;;;;;10.43;62.54;103183.38;5037668;28;45759;-81
2022/02/08 07:42:55;;;;;;;;;12.50;12.00;;;;;10.45;62.45;103193.03;5037965;28;45423;-81
2022/02/08 07:45:21;;;;;;;;;14.00;14.00;;;;;10.43;62.43;103186.88;5044749;28;45484;-81
2022/02/08 07:47:47;;;;;;;;;15.50;13.00;;;;;10.45;62.35;103193.03;5037962;28;45468;-81
2022/02/08 07:50:13;;;;;;;;;15.00;13.50;;;;;10.47;62.52;103186.03;5042344;28;45284;-81
2022/02/08 07:52:39;;;;;;;;;14.25;13.25;;;;;10.46;62.73;103184.28;5041776;28;45351;-81
2022/02/08 07:55:05;;;;;;;;;19.50;14.00;;;;;10.47;62.45;103175.50;5042120;28;45313;-81
2022/02/08 07:57:30;;;;;;;;;19.25;12.75;;;;;10.49;62.63;103183.44;5042183;28;45456;-81
2022/02/08 07:59:56;;;;;;;;;14.25;13.25;;;;;10.50;62.85;103187.81;5042122;28;45399;-81
2022/02/08 08:02:21;;;;;;;;;16.00;12.25;;;;;10.54;62.92;103186.97;5041704;28;45361;-81
2022/02/08 08:04:46;;;;;;;;;18.50;13.50;;;;;10.54;62.95;103181.72;5040038;28;46264;-81
2022/02/08 08:07:12;;;;;;;;;14.25;12.00;;;;;10.57;62.96;103178.22;5041254;28;45682;-81
2022/02/08 08:09:40;;;;;;;;;14.25;13.25;;;;;10.58;62.71;103180.00;5041978;28;45471;-81
2022/02/08 08:12:09;;;;;;;;;12.50;10.75;;;;;10.60;62.83;103177.38;5047463;28;45439;-81
2022/02/08 08:14:35;;;;;;;;;13.25;13.00;;;;;10.61;63.22;103173.88;5036200;28;45494;-81
2022/02/08 08:17:24;;;;;;;;;11.25;10.75;;;;;10.64;63.07;103174.75;5041552;28;45317;-81
2022/02/08 08:19:47;;;;;;;;;15.50;14.00;;;;;10.66;63.07;103172.16;5040685;28;45470;-80
2022/02/08 08:22:13;;;;;;;;;14.50;13.25;;;;;10.69;62.99;103177.44;5041331;28;45385;-81
2022/02/08 08:24:39;;;;;;;;;20.50;14.75;;;;;10.69;62.93;103172.19;5041413;28;46329;-81
2022/02/08 08:27:05;;;;;;;;;16.25;14.75;;;;;10.71;63.12;103175.72;5041530;28;45402;-81
2022/02/08 08:29:30;;;;;;;;;16.00;13.75;;;;;10.74;63.07;103170.44;5041526;28;45242;-81
2022/02/08 08:31:56;;;;;;;;;20.25;15.75;;;;;10.77;62.99;103172.22;5036942;28;45258;-81
2022/02/08 08:34:21;;;;;;;;;14.50;14.50;;;;;10.76;62.79;103167.84;5040734;28;46155;-81
2022/02/08 08:36:50;;;;;;;;;18.25;15.25;;;;;10.82;62.92;103174.84;5022864;28;45248;-81
2022/02/08 08:39:18;;;;;;;;;15.75;14.00;;;;;10.83;62.94;103177.53;5036742;28;45384;-81
2022/02/08 08:42:35;;;;;;;;;19.25;14.50;;;;;10.83;62.97;103180.16;5041287;28;45335;-81
2022/02/08 08:44:54;;;;;;;;;15.75;14.75;;;;;10.87;62.94;103187.19;5030075;28;46867;-81
2022/02/08 08:52:37;;;;;;;;;20.00;17.00;;;;;10.90;62.76;103186.31;5040923;28;45319;-80
2022/02/08 08:55:04;;;;;;;;;21.75;21.25;;;;;10.91;62.78;103190.72;5041304;28;45288;-80
2022/02/08 08:57:30;;;;;;;;;18.75;17.00;;;;;10.92;62.84;103195.09;5040448;28;45333;-80
2022/02/08 08:59:56;;;;;;;;;22.75;18.75;;;;;10.92;62.90;103189.84;5041227;28;45289;-80
2022/02/08 09:02:21;;;;;;;;;17.25;17.25;;;;;10.91;62.87;103181.06;5039153;28;45528;-80
2022/02/08 09:04:48;;;;;;;;;21.50;15.00;;;;;10.94;62.84;103190.72;5020045;28;48280;-80
2022/02/08 09:07:15;;;;;;;;;18.00;16.50;;;;;10.97;62.93;103185.47;5039333;28;45765;-80
2022/02/08 09:09:44;;;;;;;;;14.50;13.00;;;;;11.00;62.83;103184.63;5040654;28;45333;-80
2022/02/08 09:12:18;;;;;;;;;24.00;18.00;;;;;11.03;62.61;103179.38;5038428;28;45395;-80
2022/02/08 09:15:10;;;;;;;;;18.00;14.75;;;;;11.05;62.72;103177.63;5038892;28;45675;-80
2022/02/08 09:21:01;;;;;;;;;18.50;17.50;;;;;11.12;62.77;103175.88;5010065;28;45401;-80
2022/02/08 09:24:14;;;;;;;;;16.25;14.75;;;;;11.14;62.68;103176.75;5040360;28;45503;-80
2022/02/08 09:28:54;;;;;;;;;15.25;15.25;;;;;11.23;62.80;103182.09;5039517;28;45463;-80
2022/02/08 09:31:20;;;;;;;;;18.50;15.50;;;;;11.27;62.70;103171.53;5022918;28;45294;-80
2022/02/08 09:33:50;;;;;;;;;19.75;16.25;;;;;11.29;62.61;103172.44;5040422;28;45243;-80
2022/02/08 09:36:17;;;;;;;;;20.00;16.00;;;;;11.33;62.52;103175.06;5040136;28;46365;-80
2022/02/08 09:38:43;;;;;;;;;19.25;17.25;;;;;11.34;62.84;103168.06;5040499;28;45357;-80
2022/02/08 09:41:11;;;;;;;;;19.50;15.50;;;;;11.37;62.57;103168.06;5040655;28;45472;-80
2022/02/08 09:43:38;;;;;;;;;18.50;16.00;;;;;11.42;62.69;103166.34;5040489;28;45464;-80
2022/02/08 09:46:06;;;;;;;;;23.00;13.75;;;;;11.46;62.60;103168.09;5040289;28;46273;-80
2022/02/08 09:48:41;;;;;;;;;18.25;15.25;;;;;11.52;62.52;103176.88;5040058;28;45388;-80
2022/02/08 09:51:07;;;;;;;;;18.00;17.50;;;;;11.54;62.67;103172.50;5040609;28;45299;-80
2022/02/08 09:53:35;;;;;;;;;17.50;15.00;;;;;11.57;62.41;103169.88;5039687;28;45650;-80
2022/02/08 09:56:02;;;;;;;;;18.25;15.50;;;;;11.60;62.45;103164.63;5045142;28;45343;-80
2022/02/08 09:58:28;;;;;;;;;17.75;16.50;;;;;11.64;62.39;103168.13;5040314;28;45738;-80
2022/02/08 10:01:17;;;;;;;;;20.75;17.75;;;;;11.68;62.54;103172.53;5040593;28;45453;-80
2022/02/08 10:04:16;;;;;;;;;15.25;15.00;;;;;11.69;62.39;103162.00;5039635;28;45446;-80
2022/02/08 10:06:41;;;;;;;;;15.50;11.75;;;;;11.73;62.18;103160.22;5039899;28;45486;-80
2022/02/08 10:09:11;;;;;;;;;14.00;13.50;;;;;11.75;62.62;103162.88;5038807;28;45286;-80
2022/02/08 10:14:19;;;;;;;;;17.00;14.50;;;;;11.82;62.34;103160.25;5038929;28;45500;-80
2022/02/08 10:22:33;;;;;;;;;22.50;20.25;;;;;11.95;62.48;103164.66;5010755;28;45393;-80
2022/02/08 10:25:02;;;;;;;;;21.25;17.00;;;;;11.97;62.58;103155.88;5017094;28;45924;-80
2022/02/08 10:27:37;;;;;;;;;20.50;17.75;;;;;12.02;62.43;103171.69;5021664;28;47233;-80
2022/02/08 10:30:46;;;;;;;;;16.00;15.50;;;;;12.06;62.24;103168.16;5036699;28;45799;-80
2022/02/08 10:38:50;;;;;;;;;22.50;18.50;;;;;12.16;62.11;103163.81;5039576;28;45887;-80
2022/02/08 10:41:19;;;;;;;;;19.75;16.25;;;;;12.20;62.05;103156.78;5029708;28;45627;-80
2022/02/08 10:44:07;;;;;;;;;14.25;12.50;;;;;12.24;62.11;103161.16;5052847;28;45297;-81
2022/02/08 10:46:34;;;;;;;;;16.25;14.75;;;;;12.27;62.05;103154.09;5039645;28;45543;-80
2022/02/08 10:49:05;;;;;;;;;14.75;14.25;;;;;12.30;61.92;103162.94;5039159;28;45428;-80
2022/02/08 10:51:35;;;;;;;;;17.50;14.75;;;;;12.34;62.19;103165.56;5039643;28;45773;-80
2022/02/08 10:54:08;;;;;;;;;15.50;13.25;;;;;12.35;62.01;103159.38;5039013;28;45418;-81
2022/02/08 10:56:36;;;;;;;;;18.00;16.25;;;;;12.37;62.32;103160.25;5035726;28;46074;-80
2022/02/08 11:01:55;;;;;;;;;16.50;15.00;;;;;12.46;62.00;103169.03;5039422;28;45268;-80
2022/02/08 11:04:33;;;;;;;;;16.00;14.00;;;;;12.49;61.87;103159.34;5044203;28;45652;-80
2022/02/08 11:07:40;;;;;;;;;16.25;13.50;;;;;12.53;62.17;103159.34;5046117;28;45256;-80
2022/02/08 11:10:24;;;;;;;;;18.75;17.25;;;;;12.56;62.21;103154.97;5040178;28;45722;-81
2022/02/08 11:18:25;;;;;;;;;16.25;13.50;;;;;12.65;61.98;103158.44;5038053;28;45415;-80
2022/02/08 11:21:17;;;;;;;;;14.25;12.00;;;;;12.67;61.75;103149.63;5034178;28;46629;-80
2022/02/08 11:26:29;;;;;;;;;16.75;13.25;;;;;12.77;62.05;103139.03;5035835;28;45226;-80
2022/02/08 11:28:55;;;;;;;;;12.50;11.00;;;;;12.80;61.60;103149.59;5042601;28;45548;-80
2022/02/08 11:31:27;;;;;;;;;14.75;13.50;;;;;12.83;61.88;103146.94;5023839;28;47391;-80
2022/02/08 11:46:00;;;;;;;;;13.75;13.50;;;;;12.91;61.34;103128.44;5041474;28;45351;-78
2022/02/08 11:48:18;;;;;;;;;16.50;15.75;;;;;12.93;61.34;103124.91;5033529;28;45446;-78
2022/02/08 11:51:10;;;;;;;;;15.75;15.50;;;;;12.97;61.25;103119.59;5024177;28;46708;-78
2022/02/08 11:58:49;;;;;;;;;13.50;12.50;;;;;13.07;61.24;103110.75;5042031;28;45477;-79
2022/02/08 12:01:24;;;;;;;;;13.50;13.25;;;;;13.11;61.41;103107.19;5042019;28;45415;-78
2022/02/08 12:04:58;;;;;;;;;18.75;16.25;;;;;13.14;61.38;103101.03;5041575;28;46148;-79
2022/02/08 12:09:20;;;;;;;;;15.75;13.75;;;;;13.15;61.17;103092.25;5041859;28;45227;-78
2022/02/08 12:29:00;;;;;;;;;12.50;11.50;;;;;13.39;60.89;103070.06;5041662;28;45381;-79
2022/02/08 12:36:33;;;;;;;;;14.50;13.00;;;;;13.52;60.80;103058.53;5040271;28;45602;-79
2022/02/08 12:48:38;;;;;;;;;14.75;11.00;;;;;13.62;61.11;103049.66;5038847;28;45316;-80
2022/02/08 12:55:46;;;;;;;;;12.75;11.25;;;;;13.71;61.12;103038.13;5028072;28;45309;-84
2022/02/08 12:58:27;;;;;;;;;12.75;12.00;;;;;13.75;61.14;103034.59;5021313;28;47741;-84
2022/02/08 13:01:36;;;;;;;;;11.00;10.75;;;;;13.80;61.00;103043.31;5038986;28;45431;-84
2022/02/08 13:14:13;;;;;;;;;12.00;9.75;;;;;13.79;60.79;103028.38;5036252;28;45408;-84
2022/02/08 14:06:23;;;;;;;;;5.50;5.25;;;;;13.72;59.40;102990.56;5039851;28;45533;-84
2022/02/08 14:11:50;;;;;;;;;8.00;7.50;;;;;13.73;59.96;102981.72;5049489;28;45542;-84
2022/02/08 14:14:29;;;;;;;;;7.50;5.75;;;;;13.76;59.47;102988.75;5031798;28;46424;-85
2022/02/08 14:32:21;;;;;;;;;4.75;4.75;;;;;13.86;59.41;102981.59;5039580;28;45411;-84
2022/02/08 15:09:55;;;;;;;;;7.75;5.50;;;;;13.71;59.52;102980.88;5039288;28;45225;-84
2022/02/08 15:12:22;;;;;;;;;6.25;6.25;;;;;13.72;59.53;102974.69;5041879;28;45223;-84
2022/02/08 15:14:51;;;;;;;;;7.75;6.75;;;;;13.72;59.76;102977.34;5021156;28;45439;-84
2022/02/08 15:17:18;;;;;;;;;5.75;5.75;;;;;13.75;59.36;102981.72;5020788;28;47979;-84
2022/02/08 15:19:46;;;;;;;;;7.25;7.25;;;;;13.75;59.43;102975.56;5038842;28;45757;-84
2022/02/08 15:22:12;;;;;;;;;6.25;6.25;;;;;13.75;59.63;102976.44;5039328;28;45255;-84
2022/02/08 15:24:38;;;;;;;;;5.50;5.50;;;;;13.76;59.68;102975.53;5039090;28;45301;-84
2022/02/08 15:27:04;;;;;;;;;8.50;4.50;;;;;13.77;59.26;102981.69;5039183;28;46303;-85
2022/02/08 15:29:32;;;;;;;;;8.25;6.75;;;;;13.79;59.42;102985.19;5038911;28;45458;-84
2022/02/08 15:31:58;;;;;;;;;10.50;6.50;;;;;13.75;59.28;102978.19;5039094;28;45421;-84
2022/02/08 15:34:23;;;;;;;;;5.50;5.50;;;;;13.75;59.58;102978.19;5038863;28;45480;-85
2022/02/08 15:36:49;;;;;;;;;5.75;5.75;;;;;13.70;58.99;102981.75;5038603;28;46713;-85
2022/02/08 15:39:14;;;;;;;;;11.75;9.00;;;;;13.70;59.49;102976.47;5038821;28;45442;-85
2022/02/08 15:41:40;;;;;;;;;5.25;5.25;;;;;13.68;59.41;102980.88;5038919;28;45442;-85
2022/02/08 15:44:14;;;;;;;;;6.25;5.75;;;;;13.65;59.65;102975.66;5038802;28;45450;-85
2022/02/08 15:46:40;;;;;;;;;8.00;6.50;;;;;13.65;59.39;102978.31;5038855;28;45432;-84
2022/02/08 15:49:05;;;;;;;;;8.00;7.25;;;;;13.63;59.71;102972.13;5038534;28;45280;-84
2022/02/08 15:51:37;;;;;;;;;9.50;8.00;;;;;13.63;59.56;102969.47;5039010;28;45214;-84
2022/02/08 16:05:13;;;;;;;;;10.75;7.50;;;;;13.56;59.31;102966.03;5038991;28;45291;-84
2022/02/08 16:07:18;;;;;;;;;7.00;7.00;;;;;13.50;59.71;102961.69;5039372;28;45230;-84
2022/02/08 16:12:34;;;;;;;;;7.50;5.50;;;;;13.50;59.88;102968.72;5046766;28;45418;-84
2022/02/08 16:54:45;;;;;;;;;11.75;10.25;;;;;13.14;60.87;102980.47;5041521;28;45364;-84
2022/02/08 16:57:20;;;;;;;;;13.50;10.75;;;;;13.13;61.08;102988.41;5041185;28;45445;-84
2022/02/08 16:59:46;;;;;;;;;10.50;10.50;;;;;13.09;61.15;102981.41;5041073;28;46230;-84
2022/02/08 17:02:18;;;;;;;;;8.50;8.50;;;;;13.07;61.29;102973.47;5040773;28;45771;-84
2022/02/08 17:04:43;;;;;;;;;9.00;9.00;;;;;13.07;61.29;102980.50;5040859;28;45225;-84
2022/02/08 17:07:09;;;;;;;;;11.25;11.25;;;;;13.06;61.24;102977.03;5041234;28;45344;-84
2022/02/08 17:09:52;;;;;;;;;10.75;10.75;;;;;13.05;61.55;102981.41;5040855;28;45391;-84
2022/02/08 17:12:32;;;;;;;;;11.75;11.75;;;;;13.02;61.23;102981.44;5047553;28;45220;-84
2022/02/08 17:15:22;;;;;;;;;15.00;13.00;;;;;13.01;61.18;102984.09;5021474;28;45337;-84
2022/02/08 17:47:44;;;;;;;;;9.75;9.50;;;;;12.87;61.37;102979.78;5039601;28;45494;-87
2022/02/08 17:50:18;;;;;;;;;12.25;11.25;;;;;12.85;61.42;102978.91;5022318;28;46850;-87
2022/02/08 17:52:45;;;;;;;;;11.25;11.25;;;;;12.82;61.54;102984.19;5040316;28;45336;-87